createdAt,value
2023-04-08T00:02:29.652Z,296.82
2023-04-08T00:05:38.116Z,270.99
2023-04-08T00:08:46.570Z,263.41
2023-04-08T00:11:53.330Z,266.64
2023-04-08T00:14:59.244Z,239.64
2023-04-08T00:18:06.328Z,226.64
2023-04-08T00:21:12.459Z,226.78
2023-04-08T00:24:24.887Z,216.94
2023-04-08T00:27:31.118Z,206.18
2023-04-08T00:30:38.561Z,205.11
2023-04-08T00:33:46.579Z,210.87
2023-04-08T00:36:53.513Z,225.31
2023-04-08T00:40:02.019Z,236.83
2023-04-08T00:43:08.888Z,236.70
2023-04-08T00:46:15.235Z,227.78
2023-04-08T00:49:22.455Z,238.60
2023-04-08T00:52:28.265Z,221.01
2023-04-08T00:55:37.700Z,229.67
2023-04-08T00:58:44.062Z,234.35
2023-04-08T01:02:02.748Z,234.25
2023-04-08T01:05:16.443Z,233.30
2023-04-08T01:08:28.481Z,243.07
2023-04-08T01:11:41.699Z,235.09
2023-04-08T01:14:55.038Z,217.06
2023-04-08T01:18:04.849Z,204.42
2023-04-08T01:21:14.813Z,203.88
2023-04-08T01:24:32.704Z,206.85
2023-04-08T01:27:46.376Z,207.05
2023-04-08T01:30:54.878Z,197.81
2023-04-08T01:34:06.888Z,206.03
2023-04-08T01:37:14.210Z,202.23
2023-04-08T01:40:27.068Z,200.82
2023-04-08T01:43:39.543Z,199.07
2023-04-08T01:46:49.309Z,198.29
2023-04-08T01:49:58.288Z,190.10
2023-04-08T01:53:09.460Z,186.20
2023-04-08T01:56:18.841Z,190.98
2023-04-08T01:59:39.452Z,203.03
2023-04-08T02:02:50.489Z,201.05
2023-04-08T02:05:58.236Z,211.11
2023-04-08T02:09:06.048Z,220.23
2023-04-08T02:12:12.745Z,247.44
2023-04-08T02:15:21.335Z,248.01
2023-04-08T02:18:32.039Z,244.52
2023-04-08T02:21:50.570Z,249.16
2023-04-08T02:24:57.399Z,248.40
2023-04-08T02:28:09.209Z,243.29
2023-04-08T02:31:22.527Z,244.10
2023-04-08T02:34:30.169Z,238.82
2023-04-08T02:37:39.746Z,246.37
2023-04-08T02:40:46.144Z,241.06
2023-04-08T02:43:55.841Z,230.66
2023-04-08T02:47:04.448Z,228.07
2023-04-08T02:50:15.001Z,242.71
2023-04-08T02:53:21.082Z,240.34
2023-04-08T02:56:27.854Z,245.97
2023-04-08T02:59:33.682Z,248.64
2023-04-08T03:02:43.179Z,246.15
2023-04-08T03:05:49.306Z,266.13
2023-04-08T03:08:56.015Z,256.09
2023-04-08T03:12:02.023Z,257.18
2023-04-08T03:15:10.450Z,261.15
2023-04-08T03:18:22.382Z,254.36
2023-04-08T03:21:32.012Z,257.56
2023-04-08T03:24:37.831Z,266.10
2023-04-08T03:27:44.685Z,260.92
2023-04-08T03:30:52.630Z,266.89
2023-04-08T03:34:02.062Z,266.38
2023-04-08T03:37:08.016Z,264.08
2023-04-08T03:40:16.438Z,274.03
2023-04-08T03:43:22.618Z,268.52
2023-04-08T03:46:29.434Z,266.66
2023-04-08T03:49:38.127Z,274.95
2023-04-08T03:52:44.865Z,277.70
2023-04-08T03:55:53.785Z,269.24
2023-04-08T03:59:00.926Z,262.05
2023-04-08T04:02:06.941Z,261.43
2023-04-08T04:05:16.287Z,259.60
2023-04-08T04:08:22.619Z,254.59
2023-04-08T04:11:29.473Z,256.68
2023-04-08T04:14:35.521Z,259.78
2023-04-08T04:17:42.279Z,280.41
2023-04-08T04:20:50.787Z,311.64
2023-04-08T04:23:57.668Z,384.21
2023-04-08T04:27:03.620Z,370.90
2023-04-08T04:30:15.814Z,368.49
2023-04-08T04:33:22.299Z,344.38
2023-04-08T04:36:32.380Z,296.59
2023-04-08T04:39:38.378Z,281.27
2023-04-08T04:42:45.175Z,293.84
2023-04-08T04:45:51.107Z,462.90
2023-04-08T04:48:57.907Z,419.18
2023-04-08T04:52:06.325Z,500.06
2023-04-08T04:55:15.481Z,575.01
2023-04-08T04:58:21.773Z,492.47
2023-04-08T05:01:29.288Z,486.31
2023-04-08T05:04:35.398Z,436.28
2023-04-08T05:07:45.021Z,351.52
2023-04-08T05:10:51.167Z,464.84
2023-04-08T05:13:57.839Z,429.19
2023-04-08T05:17:03.773Z,272.02
2023-04-08T05:20:12.105Z,256.89
2023-04-08T05:23:20.788Z,259.22
2023-04-08T05:26:27.516Z,245.19
2023-04-08T05:29:36.437Z,244.73
2023-04-08T05:32:43.447Z,230.28
2023-04-08T05:35:49.767Z,232.67
2023-04-08T05:38:59.814Z,232.95
2023-04-08T05:42:06.884Z,246.50
2023-04-08T05:45:14.492Z,223.40
2023-04-08T05:48:20.417Z,233.89
2023-04-08T05:51:27.132Z,235.39
2023-04-08T05:54:35.933Z,235.33
2023-04-08T05:57:42.936Z,235.69
2023-04-08T06:00:50.197Z,224.90
2023-04-08T06:03:57.237Z,224.80
2023-04-08T06:07:04.747Z,221.28
2023-04-08T06:10:15.014Z,227.54
2023-04-08T06:13:22.284Z,225.51
2023-04-08T06:16:28.981Z,231.30
2023-04-08T06:19:35.149Z,280.96
2023-04-08T06:22:42.044Z,347.63
2023-04-08T06:25:50.614Z,445.25
2023-04-08T06:28:59.587Z,402.57
2023-04-08T06:32:10.346Z,342.62
2023-04-08T06:35:18.395Z,340.49
2023-04-08T06:38:24.288Z,326.82
2023-04-08T06:41:33.832Z,258.70
2023-04-08T06:44:53.973Z,212.41
2023-04-08T06:48:00.862Z,220.81
2023-04-08T06:51:08.173Z,219.28
2023-04-08T06:54:14.965Z,207.79
2023-04-08T06:57:23.588Z,217.59
2023-04-08T07:00:30.628Z,203.91
2023-04-08T07:03:36.753Z,210.62
2023-04-08T07:06:43.509Z,219.26
2023-04-08T07:09:49.441Z,209.30
2023-04-08T07:12:58.814Z,199.69
2023-04-08T07:16:04.899Z,180.77
2023-04-08T07:19:12.130Z,171.42
2023-04-08T07:22:18.788Z,172.42
2023-04-08T07:25:25.667Z,156.27
2023-04-08T07:28:37.749Z,163.06
2023-04-08T07:31:46.397Z,171.00
2023-04-08T07:34:52.272Z,148.66
2023-04-08T07:37:59.219Z,142.00
2023-04-08T07:41:05.363Z,138.32
2023-04-08T07:44:17.429Z,131.03
2023-04-08T07:47:23.581Z,136.39
2023-04-08T07:50:30.396Z,121.97
2023-04-08T07:53:36.595Z,128.27
2023-04-08T07:56:44.856Z,128.65
2023-04-08T07:59:53.709Z,131.52
2023-04-08T08:03:01.392Z,139.22
2023-04-08T08:06:16.720Z,131.77
2023-04-08T08:09:23.519Z,126.27
2023-04-08T08:12:29.455Z,137.07
2023-04-08T08:15:38.884Z,122.82
2023-04-08T08:18:45.034Z,104.89
2023-04-08T08:21:52.593Z,107.02
2023-04-08T08:25:07.618Z,121.79
2023-04-08T08:28:14.792Z,130.95
2023-04-08T08:31:23.406Z,120.29
2023-04-08T08:34:30.224Z,119.37
2023-04-08T08:37:36.066Z,111.55
2023-04-08T08:40:43.508Z,114.43
2023-04-08T08:43:51.769Z,118.97
2023-04-08T08:47:01.620Z,129.11
2023-04-08T08:50:08.658Z,146.00
2023-04-08T08:53:15.726Z,139.74
2023-04-08T08:56:22.157Z,130.59
2023-04-08T08:59:28.935Z,115.42
2023-04-08T09:02:37.673Z,100.42
2023-04-08T09:05:52.689Z,106.87
2023-04-08T09:09:01.898Z,115.75
2023-04-08T09:12:17.022Z,102.56
2023-04-08T09:15:24.051Z,117.13
2023-04-08T09:18:33.926Z,120.16
2023-04-08T09:21:54.485Z,119.43
2023-04-08T09:25:27.433Z,108.67
2023-04-08T09:28:41.668Z,102.46
2023-04-08T09:31:58.970Z,101.59
2023-04-08T09:35:12.103Z,102.34
2023-04-08T09:38:19.016Z,102.63
2023-04-08T09:41:36.877Z,99.80
2023-04-08T09:44:50.331Z,105.14
2023-04-08T09:48:08.285Z,102.86
2023-04-08T09:51:22.317Z,98.47
2023-04-08T09:54:47.294Z,98.99
2023-04-08T09:58:08.684Z,83.91
2023-04-08T10:01:32.515Z,90.60
2023-04-08T10:04:47.412Z,80.64
2023-04-08T10:07:56.510Z,81.89
2023-04-08T10:11:04.072Z,78.53
2023-04-08T10:14:22.437Z,82.38
2023-04-08T10:17:36.409Z,81.17
2023-04-08T10:20:47.953Z,79.92
2023-04-08T10:24:06.671Z,80.36
2023-04-08T10:27:43.993Z,77.42
2023-04-08T10:30:52.383Z,89.01
2023-04-08T10:33:58.440Z,84.61
2023-04-08T10:37:06.855Z,88.38
2023-04-08T10:40:22.701Z,87.93
2023-04-08T10:43:29.737Z,81.21
2023-04-08T10:46:41.776Z,75.90
2023-04-08T10:49:50.610Z,87.41
2023-04-08T10:52:59.803Z,86.09
2023-04-08T10:56:15.511Z,91.72
2023-04-08T10:59:37.227Z,84.63
2023-04-08T11:02:44.484Z,85.32
2023-04-08T11:05:52.301Z,100.32
2023-04-08T11:09:01.709Z,101.85
2023-04-08T11:12:10.933Z,105.94
2023-04-08T11:15:18.616Z,112.02
2023-04-08T11:18:26.430Z,108.48
2023-04-08T11:21:34.920Z,111.09
2023-04-08T11:24:41.574Z,117.39
2023-04-08T11:27:53.924Z,118.46
2023-04-08T11:31:09.229Z,119.16
2023-04-08T11:34:26.254Z,127.02
2023-04-08T11:37:41.391Z,131.79
2023-04-08T11:40:57.306Z,135.57
2023-04-08T11:44:11.441Z,121.48
2023-04-08T11:47:18.244Z,122.70
2023-04-08T11:50:35.613Z,131.12
2023-04-08T11:53:48.238Z,130.69
2023-04-08T11:56:56.495Z,133.91
2023-04-08T12:00:06.472Z,131.21
2023-04-08T12:03:17.063Z,136.72
2023-04-08T12:06:30.728Z,136.64
2023-04-08T12:09:36.999Z,139.58
2023-04-08T12:12:44.503Z,133.83
2023-04-08T12:15:53.334Z,137.03
2023-04-08T12:19:00.140Z,140.75
2023-04-08T12:22:06.333Z,141.05
2023-04-08T12:25:13.664Z,139.34
2023-04-08T12:28:19.597Z,147.81
2023-04-08T12:31:28.990Z,137.42
2023-04-08T12:34:35.623Z,135.83
2023-04-08T12:37:44.386Z,138.66
2023-04-08T12:40:50.374Z,143.35
2023-04-08T12:43:57.069Z,148.03
2023-04-08T12:47:12.115Z,144.36
2023-04-08T12:50:23.884Z,144.76
2023-04-08T12:53:30.197Z,154.49
2023-04-08T12:56:36.971Z,152.23
2023-04-08T12:59:43.040Z,146.49
2023-04-08T13:02:52.465Z,161.09
2023-04-08T13:05:59.336Z,157.61
2023-04-08T13:09:10.335Z,163.44
2023-04-08T13:12:16.590Z,153.18
2023-04-08T13:15:23.604Z,146.86
2023-04-08T13:18:32.311Z,150.80
2023-04-08T13:21:39.267Z,157.37
2023-04-08T13:24:45.420Z,172.55
2023-04-08T13:27:52.274Z,162.41
2023-04-08T13:31:01.233Z,171.99
2023-04-08T13:34:17.214Z,166.54
2023-04-08T13:37:23.263Z,169.96
2023-04-08T13:40:30.668Z,166.61
2023-04-08T13:43:39.492Z,167.91
2023-04-08T13:46:46.559Z,166.61
2023-04-08T13:50:01.768Z,166.63
2023-04-08T13:53:10.394Z,172.22
2023-04-08T13:56:16.602Z,224.86
2023-04-08T13:59:31.405Z,280.67
2023-04-08T14:02:40.849Z,254.16
2023-04-08T14:05:56.449Z,218.71
2023-04-08T14:09:02.351Z,226.94
2023-04-08T14:12:09.252Z,231.92
2023-04-08T14:15:16.485Z,179.77
2023-04-08T14:18:23.501Z,180.94
2023-04-08T14:21:32.136Z,180.10
2023-04-08T14:24:49.247Z,205.81
2023-04-08T14:27:58.777Z,186.70
2023-04-08T14:31:07.018Z,178.67
2023-04-08T14:34:15.097Z,178.93
2023-04-08T14:37:24.826Z,181.77
2023-04-08T14:40:33.562Z,174.08
2023-04-08T14:43:43.254Z,166.13
2023-04-08T14:46:51.063Z,173.95
2023-04-08T14:49:58.025Z,187.32
2023-04-08T14:53:06.834Z,206.66
2023-04-08T14:56:14.135Z,229.68
2023-04-08T14:59:23.161Z,213.63
2023-04-08T15:02:34.091Z,186.66
2023-04-08T15:05:43.076Z,153.03
2023-04-08T15:08:53.962Z,161.28
2023-04-08T15:12:00.380Z,158.85
2023-04-08T15:15:11.594Z,157.14
2023-04-08T15:18:28.815Z,162.11
2023-04-08T15:21:36.624Z,156.57
2023-04-08T15:24:48.599Z,162.40
2023-04-08T15:27:55.537Z,168.12
2023-04-08T15:31:04.233Z,167.14
2023-04-08T15:34:11.230Z,193.88
2023-04-08T15:37:20.585Z,192.89
2023-04-08T15:40:30.082Z,165.45
2023-04-08T15:43:39.477Z,165.45
2023-04-08T15:46:46.754Z,182.01
2023-04-08T15:49:56.119Z,192.93
2023-04-08T15:53:09.771Z,174.55
2023-04-08T15:56:22.965Z,178.53
2023-04-08T15:59:32.763Z,170.15
2023-04-08T16:02:39.191Z,188.44
2023-04-08T16:05:47.563Z,191.17
2023-04-08T16:08:53.450Z,182.61
2023-04-08T16:12:05.405Z,186.52
2023-04-08T16:15:13.953Z,206.25
2023-04-08T16:18:24.386Z,231.68
2023-04-08T16:21:30.856Z,346.31
2023-04-08T16:24:39.550Z,342.18
2023-04-08T16:27:49.399Z,290.02
2023-04-08T16:30:56.361Z,250.16
2023-04-08T16:34:08.793Z,224.40
2023-04-08T16:37:16.736Z,216.79
2023-04-08T16:40:25.024Z,226.86
2023-04-08T16:43:34.820Z,227.82
2023-04-08T16:46:40.874Z,228.58
2023-04-08T16:49:47.766Z,233.39
2023-04-08T16:52:54.766Z,229.09
2023-04-08T16:56:01.485Z,213.61
2023-04-08T16:59:18.469Z,228.70
2023-04-08T17:02:31.892Z,277.34
2023-04-08T17:05:48.348Z,321.72
2023-04-08T17:08:56.607Z,311.30
2023-04-08T17:12:02.601Z,287.70
2023-04-08T17:15:21.838Z,294.81
2023-04-08T17:18:33.846Z,293.50
2023-04-08T17:21:42.419Z,306.24
2023-04-08T17:24:48.715Z,300.80
2023-04-08T17:27:55.490Z,307.31
2023-04-08T17:31:08.970Z,312.83
2023-04-08T17:34:16.323Z,316.73
2023-04-08T17:37:23.007Z,339.90
2023-04-08T17:40:29.914Z,352.21
2023-04-08T17:43:49.409Z,402.19
2023-04-08T17:47:01.012Z,418.75
2023-04-08T17:50:12.013Z,437.41
2023-04-08T17:53:21.073Z,368.81
2023-04-08T17:56:28.060Z,367.63
2023-04-08T17:59:35.001Z,405.88
2023-04-08T18:02:43.640Z,430.34
2023-04-08T18:05:50.781Z,414.41
2023-04-08T18:08:59.325Z,394.06
2023-04-08T18:12:06.725Z,416.53
2023-04-08T18:15:14.269Z,382.83
2023-04-08T18:18:25.424Z,375.31
2023-04-08T18:21:31.781Z,377.32
2023-04-08T18:24:38.540Z,399.09
2023-04-08T18:27:44.698Z,408.19
2023-04-08T18:30:55.115Z,410.33
2023-04-08T18:34:03.662Z,384.66
2023-04-08T18:37:11.236Z,347.84
2023-04-08T18:40:28.312Z,395.58
2023-04-08T18:43:36.572Z,444.61
2023-04-08T18:46:46.101Z,345.03
2023-04-08T18:49:56.861Z,329.33
2023-04-08T18:53:05.758Z,317.78
2023-04-08T18:56:18.810Z,322.07
2023-04-08T18:59:30.360Z,439.63
2023-04-08T19:02:37.319Z,397.16
2023-04-08T19:05:46.869Z,412.51
2023-04-08T19:08:53.750Z,378.31
2023-04-08T19:12:00.238Z,345.47
2023-04-08T19:15:11.483Z,330.42
2023-04-08T19:18:17.383Z,350.14
2023-04-08T19:21:28.398Z,382.83
2023-04-08T19:24:34.362Z,430.96
2023-04-08T19:27:47.265Z,405.62
2023-04-08T19:30:53.461Z,373.19
2023-04-08T19:34:00.364Z,363.62
2023-04-08T19:37:09.149Z,380.96
2023-04-08T19:40:16.269Z,328.29
2023-04-08T19:43:22.176Z,314.07
2023-04-08T19:46:28.996Z,390.94
2023-04-08T19:49:35.063Z,427.30
2023-04-08T19:52:44.553Z,433.01
2023-04-08T19:55:50.629Z,419.92
2023-04-08T19:59:00.281Z,404.95
2023-04-08T20:02:06.968Z,377.40
2023-04-08T20:05:17.669Z,358.35
2023-04-08T20:08:26.558Z,440.92
2023-04-08T20:11:33.589Z,484.90
2023-04-08T20:14:46.363Z,429.61
2023-04-08T20:17:53.618Z,428.26
2023-04-08T20:21:00.913Z,464.85
2023-04-08T20:24:15.303Z,476.20
2023-04-08T20:27:21.984Z,499.93
2023-04-08T20:30:28.921Z,448.77
2023-04-08T20:33:35.087Z,371.32
2023-04-08T20:36:42.978Z,373.64
2023-04-08T20:39:57.872Z,409.13
2023-04-08T20:43:06.180Z,599.35
2023-04-08T20:46:14.142Z,513.21
2023-04-08T20:49:21.400Z,448.32
2023-04-08T20:52:27.467Z,476.68
2023-04-08T20:55:41.097Z,446.05
2023-04-08T20:58:47.043Z,432.58
2023-04-08T21:01:56.795Z,450.15
2023-04-08T21:05:03.005Z,440.00
2023-04-08T21:08:12.086Z,392.51
2023-04-08T21:11:21.377Z,328.97
2023-04-08T21:14:28.070Z,297.54
2023-04-08T21:17:34.032Z,287.35
2023-04-08T21:20:46.909Z,307.46
2023-04-08T21:23:52.744Z,350.04
2023-04-08T21:27:09.893Z,349.63
2023-04-08T21:30:17.190Z,358.91
2023-04-08T21:33:24.093Z,367.62
2023-04-08T21:36:31.162Z,389.78
2023-04-08T21:39:37.882Z,445.21
2023-04-08T21:42:46.760Z,397.56
2023-04-08T21:45:53.794Z,365.80
2023-04-08T21:48:59.794Z,329.90
2023-04-08T21:52:12.918Z,308.52
2023-04-08T21:55:18.848Z,311.26
2023-04-08T21:58:28.493Z,358.91
2023-04-08T22:01:34.630Z,398.00
2023-04-08T22:04:44.999Z,384.49
2023-04-08T22:07:51.218Z,396.74
2023-04-08T22:10:57.944Z,408.81
2023-04-08T22:14:12.462Z,410.82
2023-04-08T22:17:19.296Z,413.00
2023-04-08T22:20:26.503Z,419.58
2023-04-08T22:23:38.487Z,439.27
2023-04-08T22:26:44.815Z,459.87
2023-04-08T22:29:54.183Z,480.52
2023-04-08T22:33:00.190Z,492.38
2023-04-08T22:36:08.216Z,533.02
2023-04-08T22:39:14.038Z,565.33
2023-04-08T22:42:21.054Z,580.90
2023-04-08T22:45:29.652Z,558.22
2023-04-08T22:48:36.605Z,547.53
2023-04-08T22:51:43.258Z,545.93
2023-04-08T22:54:53.149Z,525.29
2023-04-08T22:57:59.174Z,503.82
2023-04-08T23:01:25.916Z,518.11
2023-04-08T23:04:32.792Z,518.66
2023-04-08T23:07:44.346Z,533.23
2023-04-08T23:10:50.263Z,534.89
2023-04-08T23:14:03.947Z,534.56
2023-04-08T23:17:20.904Z,529.06
2023-04-08T23:20:28.258Z,511.12
2023-04-08T23:23:34.332Z,492.55
2023-04-08T23:26:41.487Z,502.55
2023-04-08T23:29:47.383Z,502.87
2023-04-08T23:32:56.739Z,515.05
2023-04-08T23:36:02.636Z,521.74
2023-04-08T23:39:16.313Z,522.84
2023-04-08T23:42:27.500Z,507.34
2023-04-08T23:45:37.362Z,477.45
2023-04-08T23:48:46.401Z,479.17
2023-04-08T23:51:53.891Z,486.93
2023-04-08T23:54:59.838Z,511.84
2023-04-08T23:58:06.798Z,548.82
